sensor_id;sensor_type;location;lat;lon;timestamp;pressure;altitude;pressure_sealevel;temperature;humidity
30819;BME280;17546;42.674;23.284;2023-07-28T00:01:28;94842.91;;;22.48;36.68
30819;BME280;17546;42.674;23.284;2023-07-28T00:03:53;94824.81;;;22.19;36.48
30819;BME280;17546;42.674;23.284;2023-07-28T00:06:19;94835.78;;;22.47;36.20
30819;BME280;17546;42.674;23.284;2023-07-28T00:08:44;94840.59;;;22.55;36.17
30819;BME280;17546;42.674;23.284;2023-07-28T00:11:10;94833.03;;;22.32;36.45
30819;BME280;17546;42.674;23.284;2023-07-28T00:13:38;94787.44;;;22.11;36.38
30819;BME280;17546;42.674;23.284;2023-07-28T00:16:04;94827.50;;;22.42;36.97
30819;BME280;17546;42.674;23.284;2023-07-28T00:18:29;94828.72;;;22.31;36.75
30819;BME280;17546;42.674;23.284;2023-07-28T00:20:55;94817.38;;;22.39;36.56
30819;BME280;17546;42.674;23.284;2023-07-28T00:23:20;94831.53;;;22.31;37.01
30819;BME280;17546;42.674;23.284;2023-07-28T00:25:46;94820.38;;;22.41;36.76
30819;BME280;17546;42.674;23.284;2023-07-28T00:28:11;94812.66;;;22.41;36.75
30819;BME280;17546;42.674;23.284;2023-07-28T00:30:37;94830.13;;;22.47;37.06
30819;BME280;17546;42.674;23.284;2023-07-28T00:33:02;94798.38;;;22.39;37.22
30819;BME280;17546;42.674;23.284;2023-07-28T00:35:27;94810.09;;;22.61;36.62
30819;BME280;17546;42.674;23.284;2023-07-28T00:37:53;94810.13;;;22.78;36.78
30819;BME280;17546;42.674;23.284;2023-07-28T00:40:18;94819.31;;;22.86;36.73
30819;BME280;17546;42.674;23.284;2023-07-28T00:42:45;94817.31;;;22.97;36.58
30819;BME280;17546;42.674;23.284;2023-07-28T00:45:10;94818.81;;;22.98;35.97
30819;BME280;17546;42.674;23.284;2023-07-28T00:47:36;94820.03;;;22.87;35.85
30819;BME280;17546;42.674;23.284;2023-07-28T00:50:02;94816.88;;;22.83;36.17
30819;BME280;17546;42.674;23.284;2023-07-28T00:52:28;94786.69;;;22.68;36.07
30819;BME280;17546;42.674;23.284;2023-07-28T00:54:55;94822.78;;;22.95;35.42
30819;BME280;17546;42.674;23.284;2023-07-28T00:57:20;94823.44;;;22.85;35.45
30819;BME280;17546;42.674;23.284;2023-07-28T00:59:46;94794.31;;;22.58;36.17
30819;BME280;17546;42.674;23.284;2023-07-28T01:02:12;94747.06;;;22.33;35.67
30819;BME280;17546;42.674;23.284;2023-07-28T01:04:38;94800.97;;;22.70;35.96
30819;BME280;17546;42.674;23.284;2023-07-28T01:07:09;94821.88;;;23.17;36.17
30819;BME280;17546;42.674;23.284;2023-07-28T01:12:24;94816.88;;;23.08;35.83
30819;BME280;17546;42.674;23.284;2023-07-28T01:14:49;94829.19;;;23.20;36.21
30819;BME280;17546;42.674;23.284;2023-07-28T01:17:15;94821.38;;;23.11;36.64
30819;BME280;17546;42.674;23.284;2023-07-28T01:19:41;94811.22;;;23.08;36.71
30819;BME280;17546;42.674;23.284;2023-07-28T01:24:51;94823.53;;;23.20;36.75
30819;BME280;17546;42.674;23.284;2023-07-28T01:27:20;94788.25;;;22.86;36.72
30819;BME280;17546;42.674;23.284;2023-07-28T01:29:46;94820.91;;;22.72;36.95
30819;BME280;17546;42.674;23.284;2023-07-28T01:32:12;94823.09;;;22.81;36.96
30819;BME280;17546;42.674;23.284;2023-07-28T01:34:38;94801.78;;;22.63;36.77
30819;BME280;17546;42.674;23.284;2023-07-28T01:37:03;94821.31;;;22.68;37.08
30819;BME280;17546;42.674;23.284;2023-07-28T01:39:29;94820.13;;;22.97;36.80
30819;BME280;17546;42.674;23.284;2023-07-28T01:41:54;94820.38;;;23.16;36.27
30819;BME280;17546;42.674;23.284;2023-07-28T01:44:19;94817.72;;;23.36;35.91
30819;BME280;17546;42.674;23.284;2023-07-28T01:46:45;94815.72;;;23.98;35.00
30819;BME280;17546;42.674;23.284;2023-07-28T01:49:10;94823.56;;;23.90;35.07
30819;BME280;17546;42.674;23.284;2023-07-28T01:51:35;94809.75;;;23.77;35.47
30819;BME280;17546;42.674;23.284;2023-07-28T01:54:01;94825.22;;;23.93;35.62
30819;BME280;17546;42.674;23.284;2023-07-28T01:56:26;94832.94;;;24.10;34.94
30819;BME280;17546;42.674;23.284;2023-07-28T01:58:52;94823.69;;;24.09;34.85
30819;BME280;17546;42.674;23.284;2023-07-28T02:01:17;94820.06;;;23.99;34.98
30819;BME280;17546;42.674;23.284;2023-07-28T02:03:42;94826.50;;;24.09;34.88
30819;BME280;17546;42.674;23.284;2023-07-28T02:06:08;94839.63;;;24.32;34.06
30819;BME280;17546;42.674;23.284;2023-07-28T02:08:33;94811.00;;;24.28;33.90
30819;BME280;17546;42.674;23.284;2023-07-28T02:10:58;94826.13;;;24.23;34.48
30819;BME280;17546;42.674;23.284;2023-07-28T02:13:24;94818.47;;;24.33;34.36
30819;BME280;17546;42.674;23.284;2023-07-28T02:15:49;94808.94;;;24.38;33.95
30819;BME280;17546;42.674;23.284;2023-07-28T02:18:15;94828.72;;;24.56;33.97
30819;BME280;17546;42.674;23.284;2023-07-28T02:20:40;94790.47;;;24.37;33.83
30819;BME280;17546;42.674;23.284;2023-07-28T02:23:05;94815.78;;;24.35;34.28
30819;BME280;17546;42.674;23.284;2023-07-28T02:25:31;94780.47;;;24.36;33.93
30819;BME280;17546;42.674;23.284;2023-07-28T02:27:57;94826.13;;;24.67;33.78
30819;BME280;17546;42.674;23.284;2023-07-28T02:30:22;94842.41;;;24.86;33.75
30819;BME280;17546;42.674;23.284;2023-07-28T02:32:48;94851.63;;;25.14;33.17
30819;BME280;17546;42.674;23.284;2023-07-28T02:35:13;94822.66;;;25.06;32.98
30819;BME280;17546;42.674;23.284;2023-07-28T02:37:38;94836.09;;;25.15;33.05
30819;BME280;17546;42.674;23.284;2023-07-28T02:40:04;94820.53;;;24.97;33.35
30819;BME280;17546;42.674;23.284;2023-07-28T02:42:30;94837.47;;;25.24;32.99
30819;BME280;17546;42.674;23.284;2023-07-28T02:44:55;94808.47;;;25.06;32.59
30819;BME280;17546;42.674;23.284;2023-07-28T02:47:21;94839.00;;;24.88;33.42
30819;BME280;17546;42.674;23.284;2023-07-28T02:49:46;94829.63;;;24.95;33.39
30819;BME280;17546;42.674;23.284;2023-07-28T02:52:12;94832.38;;;25.12;32.96
30819;BME280;17546;42.674;23.284;2023-07-28T02:54:37;94802.34;;;25.00;32.80
30819;BME280;17546;42.674;23.284;2023-07-28T02:57:02;94823.84;;;25.03;33.00
30819;BME280;17546;42.674;23.284;2023-07-28T02:59:28;94835.63;;;25.09;33.00
30819;BME280;17546;42.674;23.284;2023-07-28T03:01:53;94815.13;;;24.81;33.01
30819;BME280;17546;42.674;23.284;2023-07-28T03:04:19;94820.16;;;24.73;33.55
30819;BME280;17546;42.674;23.284;2023-07-28T03:06:48;94835.28;;;24.95;33.36
30819;BME280;17546;42.674;23.284;2023-07-28T03:09:13;94816.91;;;24.86;33.16
30819;BME280;17546;42.674;23.284;2023-07-28T03:11:41;94821.22;;;24.78;33.16
30819;BME280;17546;42.674;23.284;2023-07-28T03:14:07;94812.19;;;24.52;33.36
30819;BME280;17546;42.674;23.284;2023-07-28T03:16:32;94828.31;;;24.59;33.44
30819;BME280;17546;42.674;23.284;2023-07-28T03:18:58;94844.22;;;24.54;33.80
30819;BME280;17546;42.674;23.284;2023-07-28T03:21:23;94841.66;;;24.49;33.72
30819;BME280;17546;42.674;23.284;2023-07-28T03:23:48;94834.59;;;24.40;33.71
30819;BME280;17546;42.674;23.284;2023-07-28T03:26:14;94845.84;;;24.48;33.96
30819;BME280;17546;42.674;23.284;2023-07-28T03:28:39;94820.38;;;24.30;33.83
30819;BME280;17546;42.674;23.284;2023-07-28T03:31:05;94846.44;;;24.29;34.29
30819;BME280;17546;42.674;23.284;2023-07-28T03:33:30;94825.84;;;24.19;33.86
30819;BME280;17546;42.674;23.284;2023-07-28T03:35:55;94850.34;;;24.33;34.42
30819;BME280;17546;42.674;23.284;2023-07-28T03:38:21;94844.75;;;24.43;33.87
30819;BME280;17546;42.674;23.284;2023-07-28T03:40:46;94849.91;;;24.54;34.21
30819;BME280;17546;42.674;23.284;2023-07-28T03:43:12;94859.03;;;24.63;33.83
30819;BME280;17546;42.674;23.284;2023-07-28T03:45:37;94846.78;;;24.60;33.93
30819;BME280;17546;42.674;23.284;2023-07-28T03:48:03;94832.13;;;24.27;33.98
30819;BME280;17546;42.674;23.284;2023-07-28T03:50:28;94839.66;;;24.42;33.80
30819;BME280;17546;42.674;23.284;2023-07-28T03:52:54;94826.78;;;24.31;34.20
30819;BME280;17546;42.674;23.284;2023-07-28T03:55:19;94853.47;;;24.55;34.02
30819;BME280;17546;42.674;23.284;2023-07-28T03:57:44;94847.09;;;24.64;33.58
30819;BME280;17546;42.674;23.284;2023-07-28T04:00:10;94843.00;;;24.48;34.05
30819;BME280;17546;42.674;23.284;2023-07-28T04:02:36;94846.22;;;24.44;34.05
30819;BME280;17546;42.674;23.284;2023-07-28T04:05:01;94798.88;;;24.18;33.82
30819;BME280;17546;42.674;23.284;2023-07-28T04:07:27;94844.31;;;24.47;33.75
30819;BME280;17546;42.674;23.284;2023-07-28T04:09:52;94814.31;;;24.34;33.88
30819;BME280;17546;42.674;23.284;2023-07-28T04:12:21;94873.47;;;24.67;33.85
30819;BME280;17546;42.674;23.284;2023-07-28T04:14:47;94861.59;;;24.78;33.63
30819;BME280;17546;42.674;23.284;2023-07-28T04:17:12;94841.72;;;24.59;33.68
30819;BME280;17546;42.674;23.284;2023-07-28T04:19:37;94841.97;;;24.53;33.89
30819;BME280;17546;42.674;23.284;2023-07-28T04:22:03;94860.78;;;24.58;33.44
30819;BME280;17546;42.674;23.284;2023-07-28T04:24:28;94837.00;;;24.17;33.82
30819;BME280;17546;42.674;23.284;2023-07-28T04:26:54;94872.06;;;24.31;34.16
30819;BME280;17546;42.674;23.284;2023-07-28T04:29:19;94863.53;;;24.21;34.04
30819;BME280;17546;42.674;23.284;2023-07-28T04:31:45;94871.25;;;24.21;34.39
30819;BME280;17546;42.674;23.284;2023-07-28T04:34:10;94872.44;;;24.18;34.47
30819;BME280;17546;42.674;23.284;2023-07-28T04:36:36;94860.63;;;24.11;34.54
30819;BME280;17546;42.674;23.284;2023-07-28T04:39:01;94844.00;;;23.98;34.81
30819;BME280;17546;42.674;23.284;2023-07-28T04:41:26;94867.47;;;24.08;34.92
30819;BME280;17546;42.674;23.284;2023-07-28T04:43:52;94867.78;;;24.12;35.07
30819;BME280;17546;42.674;23.284;2023-07-28T04:46:18;94846.66;;;23.96;35.06
30819;BME280;17546;42.674;23.284;2023-07-28T04:48:43;94841.78;;;23.97;34.90
30819;BME280;17546;42.674;23.284;2023-07-28T04:51:08;94839.03;;;23.89;34.67
30819;BME280;17546;42.674;23.284;2023-07-28T04:53:34;94834.19;;;23.99;34.77
30819;BME280;17546;42.674;23.284;2023-07-28T04:55:59;94864.13;;;24.02;34.50
30819;BME280;17546;42.674;23.284;2023-07-28T04:58:25;94846.53;;;23.59;35.13
30819;BME280;17546;42.674;23.284;2023-07-28T05:00:50;94841.03;;;23.79;35.09
30819;BME280;17546;42.674;23.284;2023-07-28T05:03:15;94825.72;;;23.64;35.06
30819;BME280;17546;42.674;23.284;2023-07-28T05:05:44;94824.53;;;23.67;35.10
30819;BME280;17546;42.674;23.284;2023-07-28T05:08:10;94859.38;;;24.05;35.04
30819;BME280;17546;42.674;23.284;2023-07-28T05:10:35;94837.84;;;23.92;35.05
30819;BME280;17546;42.674;23.284;2023-07-28T05:13:01;94846.31;;;24.09;35.07
30819;BME280;17546;42.674;23.284;2023-07-28T05:15:28;94859.28;;;24.30;35.05
30819;BME280;17546;42.674;23.284;2023-07-28T05:17:54;94840.44;;;24.25;35.05
30819;BME280;17546;42.674;23.284;2023-07-28T05:20:19;94860.66;;;24.39;35.00
30819;BME280;17546;42.674;23.284;2023-07-28T05:22:44;94848.69;;;24.30;34.77
30819;BME280;17546;42.674;23.284;2023-07-28T05:25:10;94853.28;;;24.26;34.66
30819;BME280;17546;42.674;23.284;2023-07-28T05:27:35;94830.41;;;24.14;34.87
30819;BME280;17546;42.674;23.284;2023-07-28T05:30:01;94844.59;;;24.41;34.16
30819;BME280;17546;42.674;23.284;2023-07-28T05:32:26;94861.00;;;24.70;34.41
30819;BME280;17546;42.674;23.284;2023-07-28T05:34:51;94835.78;;;24.37;34.04
30819;BME280;17546;42.674;23.284;2023-07-28T05:37:17;94858.75;;;24.41;34.13
30819;BME280;17546;42.674;23.284;2023-07-28T05:39:42;94866.31;;;24.39;34.92
30819;BME280;17546;42.674;23.284;2023-07-28T05:42:09;94820.81;;;24.27;34.92
30819;BME280;17546;42.674;23.284;2023-07-28T05:44:34;94860.81;;;24.41;35.05
30819;BME280;17546;42.674;23.284;2023-07-28T05:47:00;94848.00;;;24.40;35.19
30819;BME280;17546;42.674;23.284;2023-07-28T05:49:25;94835.84;;;24.29;34.71
30819;BME280;17546;42.674;23.284;2023-07-28T05:51:51;94863.66;;;24.41;35.04
30819;BME280;17546;42.674;23.284;2023-07-28T05:54:16;94844.75;;;24.43;34.75
30819;BME280;17546;42.674;23.284;2023-07-28T05:56:42;94826.59;;;24.19;35.22
30819;BME280;17546;42.674;23.284;2023-07-28T05:59:08;94833.09;;;24.39;35.20
30819;BME280;17546;42.674;23.284;2023-07-28T06:01:33;94843.03;;;24.58;35.23
30819;BME280;17546;42.674;23.284;2023-07-28T06:03:59;94838.31;;;24.16;35.16
30819;BME280;17546;42.674;23.284;2023-07-28T06:06:27;94818.34;;;24.13;35.02
30819;BME280;17546;42.674;23.284;2023-07-28T06:08:53;94846.59;;;24.04;35.40
30819;BME280;17546;42.674;23.284;2023-07-28T06:11:19;94823.78;;;24.29;34.84
30819;BME280;17546;42.674;23.284;2023-07-28T06:13:45;94835.81;;;24.47;34.80
30819;BME280;17546;42.674;23.284;2023-07-28T06:16:12;94838.88;;;24.59;34.81
30819;BME280;17546;42.674;23.284;2023-07-28T06:18:37;94804.59;;;23.83;35.09
30819;BME280;17546;42.674;23.284;2023-07-28T06:21:03;94839.16;;;24.08;35.04
30819;BME280;17546;42.674;23.284;2023-07-28T06:23:29;94843.97;;;24.16;35.08
30819;BME280;17546;42.674;23.284;2023-07-28T06:25:54;94825.50;;;24.42;34.90
30819;BME280;17546;42.674;23.284;2023-07-28T06:28:20;94833.53;;;24.63;34.67
30819;BME280;17546;42.674;23.284;2023-07-28T06:30:46;94824.19;;;23.98;35.12
30819;BME280;17546;42.674;23.284;2023-07-28T06:33:12;94831.22;;;24.24;35.21
30819;BME280;17546;42.674;23.284;2023-07-28T06:35:38;94833.84;;;24.67;35.11
30819;BME280;17546;42.674;23.284;2023-07-28T06:38:04;94826.94;;;24.50;34.90
30819;BME280;17546;42.674;23.284;2023-07-28T06:40:29;94817.84;;;24.52;34.49
30819;BME280;17546;42.674;23.284;2023-07-28T06:42:55;94818.47;;;24.60;35.29
30819;BME280;17546;42.674;23.284;2023-07-28T06:45:21;94821.28;;;24.97;35.25
30819;BME280;17546;42.674;23.284;2023-07-28T06:47:46;94838.25;;;25.44;35.03
30819;BME280;17546;42.674;23.284;2023-07-28T06:50:12;94833.16;;;25.32;33.85
30819;BME280;17546;42.674;23.284;2023-07-28T06:52:38;94824.25;;;25.65;33.74
30819;BME280;17546;42.674;23.284;2023-07-28T06:55:03;94833.81;;;25.80;33.92
30819;BME280;17546;42.674;23.284;2023-07-28T06:57:30;94819.72;;;26.40;32.46
30819;BME280;17546;42.674;23.284;2023-07-28T06:59:56;94844.59;;;26.71;32.63
30819;BME280;17546;42.674;23.284;2023-07-28T07:02:21;94829.53;;;26.58;32.35
30819;BME280;17546;42.674;23.284;2023-07-28T07:04:47;94837.47;;;26.50;31.79
30819;BME280;17546;42.674;23.284;2023-07-28T07:07:12;94841.78;;;27.33;30.90
30819;BME280;17546;42.674;23.284;2023-07-28T07:09:38;94826.69;;;27.74;30.40
30819;BME280;17546;42.674;23.284;2023-07-28T07:12:04;94828.44;;;28.34;30.06
30819;BME280;17546;42.674;23.284;2023-07-28T07:14:29;94805.66;;;28.34;29.60
30819;BME280;17546;42.674;23.284;2023-07-28T07:16:55;94830.50;;;28.90;29.04
30819;BME280;17546;42.674;23.284;2023-07-28T07:19:20;94808.22;;;28.98;29.21
30819;BME280;17546;42.674;23.284;2023-07-28T07:21:46;94836.38;;;29.16;28.77
30819;BME280;17546;42.674;23.284;2023-07-28T07:24:13;94829.56;;;29.09;28.94
30819;BME280;17546;42.674;23.284;2023-07-28T07:26:41;94837.16;;;29.77;27.74
30819;BME280;17546;42.674;23.284;2023-07-28T07:29:07;94836.97;;;29.38;27.33
30819;BME280;17546;42.674;23.284;2023-07-28T07:31:33;94832.72;;;29.51;27.75
30819;BME280;17546;42.674;23.284;2023-07-28T07:33:59;94842.69;;;29.26;27.81
30819;BME280;17546;42.674;23.284;2023-07-28T07:36:25;94846.53;;;29.19;27.90
30819;BME280;17546;42.674;23.284;2023-07-28T07:38:50;94823.06;;;29.44;27.51
30819;BME280;17546;42.674;23.284;2023-07-28T07:41:16;94842.69;;;29.26;27.73
30819;BME280;17546;42.674;23.284;2023-07-28T07:43:45;94817.78;;;29.15;27.20
30819;BME280;17546;42.674;23.284;2023-07-28T07:46:12;94845.41;;;29.36;27.75
30819;BME280;17546;42.674;23.284;2023-07-28T07:48:37;94825.81;;;29.42;27.07
30819;BME280;17546;42.674;23.284;2023-07-28T07:51:03;94847.56;;;29.84;27.18
30819;BME280;17546;42.674;23.284;2023-07-28T07:53:28;94850.84;;;30.56;26.35
30819;BME280;17546;42.674;23.284;2023-07-28T07:55:54;94844.88;;;31.17;25.90
30819;BME280;17546;42.674;23.284;2023-07-28T07:58:19;94820.53;;;31.43;26.67
30819;BME280;17546;42.674;23.284;2023-07-28T08:00:45;94839.19;;;31.44;26.01
30819;BME280;17546;42.674;23.284;2023-07-28T08:03:11;94840.41;;;31.41;25.30
30819;BME280;17546;42.674;23.284;2023-07-28T08:05:36;94846.16;;;31.41;25.45
30819;BME280;17546;42.674;23.284;2023-07-28T08:08:02;94826.25;;;31.16;25.96
30819;BME280;17546;42.674;23.284;2023-07-28T08:10:28;94816.69;;;30.97;26.10
30819;BME280;17546;42.674;23.284;2023-07-28T08:12:54;94845.38;;;30.85;26.00
30819;BME280;17546;42.674;23.284;2023-07-28T08:15:20;94817.75;;;30.64;26.13
30819;BME280;17546;42.674;23.284;2023-07-28T08:17:45;94816.59;;;31.09;25.89
30819;BME280;17546;42.674;23.284;2023-07-28T08:20:11;94841.41;;;32.17;24.05
30819;BME280;17546;42.674;23.284;2023-07-28T08:22:37;94829.44;;;31.49;24.83
30819;BME280;17546;42.674;23.284;2023-07-28T08:25:03;94808.59;;;31.90;24.18
30819;BME280;17546;42.674;23.284;2023-07-28T08:27:29;94834.47;;;32.52;24.14
30819;BME280;17546;42.674;23.284;2023-07-28T08:29:55;94837.00;;;32.60;24.74
30819;BME280;17546;42.674;23.284;2023-07-28T08:32:20;94815.41;;;32.43;23.89
30819;BME280;17546;42.674;23.284;2023-07-28T08:34:47;94829.84;;;32.15;24.22
30819;BME280;17546;42.674;23.284;2023-07-28T08:37:13;94829.25;;;32.03;24.26
30819;BME280;17546;42.674;23.284;2023-07-28T08:39:38;94818.59;;;31.06;25.04
30819;BME280;17546;42.674;23.284;2023-07-28T08:42:04;94827.72;;;31.58;24.31
30819;BME280;17546;42.674;23.284;2023-07-28T08:44:33;94801.78;;;31.98;24.33
30819;BME280;17546;42.674;23.284;2023-07-28T08:47:03;94830.16;;;32.21;24.06
30819;BME280;17546;42.674;23.284;2023-07-28T08:49:32;94829.03;;;31.99;23.97
30819;BME280;17546;42.674;23.284;2023-07-28T08:52:01;94804.69;;;31.84;23.79
30819;BME280;17546;42.674;23.284;2023-07-28T08:54:27;94821.84;;;32.27;25.08
30819;BME280;17546;42.674;23.284;2023-07-28T08:56:53;94818.09;;;32.09;23.86
30819;BME280;17546;42.674;23.284;2023-07-28T08:59:26;94824.34;;;32.65;23.95
30819;BME280;17546;42.674;23.284;2023-07-28T09:01:56;94794.19;;;32.64;23.72
30819;BME280;17546;42.674;23.284;2023-07-28T09:04:23;94775.69;;;32.83;23.76
30819;BME280;17546;42.674;23.284;2023-07-28T09:06:49;94778.25;;;31.85;24.03
30819;BME280;17546;42.674;23.284;2023-07-28T09:09:16;94791.97;;;32.78;23.97
30819;BME280;17546;42.674;23.284;2023-07-28T09:11:52;94787.91;;;32.67;22.76
30819;BME280;17546;42.674;23.284;2023-07-28T09:14:19;94786.84;;;31.99;23.80
30819;BME280;17546;42.674;23.284;2023-07-28T09:16:46;94780.16;;;32.24;23.23
30819;BME280;17546;42.674;23.284;2023-07-28T09:19:15;94720.28;;;32.30;23.64
30819;BME280;17546;42.674;23.284;2023-07-28T09:21:44;94752.94;;;33.19;23.56
30819;BME280;17546;42.674;23.284;2023-07-28T09:24:13;94767.00;;;32.81;22.64
30819;BME280;17546;42.674;23.284;2023-07-28T09:26:48;94731.72;;;33.26;22.79
30819;BME280;17546;42.674;23.284;2023-07-28T09:29:22;94741.84;;;33.79;21.97
30819;BME280;17546;42.674;23.284;2023-07-28T09:31:49;94753.22;;;33.59;21.75
30819;BME280;17546;42.674;23.284;2023-07-28T09:34:26;94743.81;;;34.28;22.43
30819;BME280;17546;42.674;23.284;2023-07-28T09:36:56;94743.97;;;34.32;21.89
30819;BME280;17546;42.674;23.284;2023-07-28T09:39:22;94708.00;;;34.13;21.99
30819;BME280;17546;42.674;23.284;2023-07-28T09:41:48;94712.38;;;34.52;22.15
30819;BME280;17546;42.674;23.284;2023-07-28T09:44:14;94726.59;;;34.86;20.96
30819;BME280;17546;42.674;23.284;2023-07-28T09:46:59;94707.06;;;35.22;21.04
30819;BME280;17546;42.674;23.284;2023-07-28T09:49:35;94730.34;;;35.50;20.91
30819;BME280;17546;42.674;23.284;2023-07-28T09:52:04;94711.63;;;35.51;20.08
30819;BME280;17546;42.674;23.284;2023-07-28T09:54:30;94731.00;;;34.31;20.29
30819;BME280;17546;42.674;23.284;2023-07-28T09:57:17;94706.72;;;35.34;19.40
30819;BME280;17546;42.674;23.284;2023-07-28T09:59:48;94731.19;;;35.33;20.11
30819;BME280;17546;42.674;23.284;2023-07-28T10:02:16;94719.88;;;35.39;19.86
30819;BME280;17546;42.674;23.284;2023-07-28T10:04:47;94709.72;;;35.16;20.66
30819;BME280;17546;42.674;23.284;2023-07-28T10:07:19;94696.56;;;35.31;20.47
30819;BME280;17546;42.674;23.284;2023-07-28T10:09:45;94696.19;;;35.21;20.81
30819;BME280;17546;42.674;23.284;2023-07-28T10:12:24;94708.47;;;35.63;20.38
30819;BME280;17546;42.674;23.284;2023-07-28T10:15:12;94715.41;;;36.00;20.10
30819;BME280;17546;42.674;23.284;2023-07-28T10:17:38;94682.09;;;35.09;19.81
30819;BME280;17546;42.674;23.284;2023-07-28T10:20:04;94707.34;;;35.10;19.96
30819;BME280;17546;42.674;23.284;2023-07-28T10:22:46;94709.16;;;34.62;20.05
30819;BME280;17546;42.674;23.284;2023-07-28T10:25:12;94706.41;;;34.46;20.10
30819;BME280;17546;42.674;23.284;2023-07-28T10:27:43;94708.91;;;34.93;19.80
30819;BME280;17546;42.674;23.284;2023-07-28T10:30:11;94696.06;;;34.76;20.81
30819;BME280;17546;42.674;23.284;2023-07-28T10:32:39;94668.25;;;34.83;21.06
30819;BME280;17546;42.674;23.284;2023-07-28T10:35:24;94689.94;;;35.06;20.22
30819;BME280;17546;42.674;23.284;2023-07-28T10:37:50;94697.75;;;35.88;20.04
30819;BME280;17546;42.674;23.284;2023-07-28T10:40:32;94691.34;;;36.13;19.97
30819;BME280;17546;42.674;23.284;2023-07-28T10:43:02;94696.00;;;35.78;19.99
30819;BME280;17546;42.674;23.284;2023-07-28T10:45:30;94670.53;;;35.71;19.33
30819;BME280;17546;42.674;23.284;2023-07-28T10:47:56;94681.97;;;36.13;20.06
30819;BME280;17546;42.674;23.284;2023-07-28T10:50:27;94678.38;;;35.90;19.51
30819;BME280;17546;42.674;23.284;2023-07-28T10:52:53;94677.53;;;36.10;19.17
30819;BME280;17546;42.674;23.284;2023-07-28T10:55:20;94671.78;;;36.10;19.15
30819;BME280;17546;42.674;23.284;2023-07-28T10:57:47;94674.56;;;36.30;20.04
30819;BME280;17546;42.674;23.284;2023-07-28T11:00:17;94675.63;;;36.40;19.17
30819;BME280;17546;42.674;23.284;2023-07-28T11:02:43;94650.69;;;36.03;19.54
30819;BME280;17546;42.674;23.284;2023-07-28T11:05:11;94656.66;;;35.87;19.71
30819;BME280;17546;42.674;23.284;2023-07-28T11:07:41;94664.69;;;35.47;20.17
30819;BME280;17546;42.674;23.284;2023-07-28T11:10:08;94642.81;;;34.95;20.54
30819;BME280;17546;42.674;23.284;2023-07-28T11:12:34;94658.06;;;35.20;19.91
30819;BME280;17546;42.674;23.284;2023-07-28T11:14:59;94641.06;;;34.28;20.44
30819;BME280;17546;42.674;23.284;2023-07-28T11:17:25;94633.50;;;33.81;20.61
30819;BME280;17546;42.674;23.284;2023-07-28T11:19:52;94626.09;;;34.12;20.40
30819;BME280;17546;42.674;23.284;2023-07-28T11:22:18;94628.28;;;34.71;20.11
30819;BME280;17546;42.674;23.284;2023-07-28T11:24:44;94630.63;;;34.97;19.75
30819;BME280;17546;42.674;23.284;2023-07-28T11:27:10;94639.44;;;35.03;20.04
30819;BME280;17546;42.674;23.284;2023-07-28T11:29:36;94630.50;;;34.93;19.86
30819;BME280;17546;42.674;23.284;2023-07-28T11:32:01;94631.81;;;34.70;19.79
30819;BME280;17546;42.674;23.284;2023-07-28T11:34:27;94615.75;;;34.43;19.83
30819;BME280;17546;42.674;23.284;2023-07-28T11:36:52;94616.31;;;34.19;19.71
30819;BME280;17546;42.674;23.284;2023-07-28T11:39:19;94586.03;;;34.16;19.83
30819;BME280;17546;42.674;23.284;2023-07-28T11:41:47;94614.19;;;34.40;19.84
30819;BME280;17546;42.674;23.284;2023-07-28T11:44:13;94606.56;;;33.90;20.25
30819;BME280;17546;42.674;23.284;2023-07-28T11:46:41;94573.72;;;34.13;20.41
30819;BME280;17546;42.674;23.284;2023-07-28T11:49:19;94617.34;;;34.48;19.63
30819;BME280;17546;42.674;23.284;2023-07-28T11:51:52;94584.69;;;34.19;19.21
30819;BME280;17546;42.674;23.284;2023-07-28T11:54:21;94604.66;;;34.55;19.29
30819;BME280;17546;42.674;23.284;2023-07-28T11:56:48;94607.53;;;34.55;19.43
30819;BME280;17546;42.674;23.284;2023-07-28T11:59:16;94619.69;;;35.13;19.19
30819;BME280;17546;42.674;23.284;2023-07-28T12:02:02;94612.72;;;35.21;19.77
30819;BME280;17546;42.674;23.284;2023-07-28T12:04:31;94584.09;;;34.83;19.57
30819;BME280;17546;42.674;23.284;2023-07-28T12:07:11;94599.31;;;35.07;19.70
30819;BME280;17546;42.674;23.284;2023-07-28T12:12:15;94569.22;;;35.54;19.27
30819;BME280;17546;42.674;23.284;2023-07-28T12:14:40;94587.56;;;35.65;19.28
30819;BME280;17546;42.674;23.284;2023-07-28T12:17:16;94568.22;;;35.46;19.73
30819;BME280;17546;42.674;23.284;2023-07-28T12:20:03;94562.97;;;35.62;19.70
30819;BME280;17546;42.674;23.284;2023-07-28T12:22:37;94595.59;;;35.69;19.46
30819;BME280;17546;42.674;23.284;2023-07-28T12:25:04;94587.03;;;35.49;19.73
30819;BME280;17546;42.674;23.284;2023-07-28T12:27:31;94563.47;;;35.10;20.14
30819;BME280;17546;42.674;23.284;2023-07-28T12:29:57;94577.78;;;35.52;19.51
30819;BME280;17546;42.674;23.284;2023-07-28T12:32:22;94580.84;;;35.36;19.67
30819;BME280;17546;42.674;23.284;2023-07-28T12:34:51;94554.41;;;35.42;19.53
30819;BME280;17546;42.674;23.284;2023-07-28T12:37:17;94567.84;;;35.79;18.94
30819;BME280;17546;42.674;23.284;2023-07-28T12:39:43;94570.34;;;35.91;19.33
30819;BME280;17546;42.674;23.284;2023-07-28T12:42:10;94563.25;;;36.18;19.54
30819;BME280;17546;42.674;23.284;2023-07-28T12:44:38;94558.78;;;36.39;19.54
30819;BME280;17546;42.674;23.284;2023-07-28T12:47:04;94546.88;;;36.51;20.05
30819;BME280;17546;42.674;23.284;2023-07-28T12:49:30;94546.41;;;36.35;19.45
30819;BME280;17546;42.674;23.284;2023-07-28T12:51:58;94536.41;;;36.12;19.37
30819;BME280;17546;42.674;23.284;2023-07-28T12:54:24;94560.28;;;36.40;19.08
30819;BME280;17546;42.674;23.284;2023-07-28T12:56:50;94550.31;;;35.05;20.41